sensor_id;sensor_type;location;lat;lon;timestamp;pressure;altitude;pressure_sealevel;temperature
85302;BMP280;75707;46.948;7.410;2024-02-21T00:00:08;963.9299927;;;6.678161621
85302;BMP280;75707;46.948;7.410;2024-02-21T00:01:13;963.9049072;;;6.647949219
85302;BMP280;75707;46.948;7.410;2024-02-21T00:02:10;963.815918;;;6.627807617
85302;BMP280;75707;46.948;7.410;2024-02-21T00:03:42;963.7987671;;;6.627807617
85302;BMP280;75707;46.948;7.410;2024-02-21T00:04:43;963.7849121;;;6.607666016
85302;BMP280;75707;46.948;7.410;2024-02-21T00:05:44;963.7584229;;;6.607666016
85302;BMP280;75707;46.948;7.410;2024-02-21T00:06:45;963.772522;;;6.597595215
85302;BMP280;75707;46.948;7.410;2024-02-21T00:07:46;963.7815552;;;6.547241211
85302;BMP280;75707;46.948;7.410;2024-02-21T00:08:47;963.7473145;;;6.496887207
85302;BMP280;75707;46.948;7.410;2024-02-21T00:09:48;963.7175903;;;6.506958008
85302;BMP280;75707;46.948;7.410;2024-02-21T00:10:49;963.7262573;;;6.496887207
85302;BMP280;75707;46.948;7.410;2024-02-21T00:11:50;963.6606445;;;6.506958008
85302;BMP280;75707;46.948;7.410;2024-02-21T00:12:52;963.6576538;;;6.496887207
85302;BMP280;75707;46.948;7.410;2024-02-21T00:13:52;963.6381226;;;6.506958008
85302;BMP280;75707;46.948;7.410;2024-02-21T00:14:54;963.6379395;;;6.456604004
85302;BMP280;75707;46.948;7.410;2024-02-21T00:15:55;963.5967407;;;6.456604004
85302;BMP280;75707;46.948;7.410;2024-02-21T00:16:56;963.5717773;;;6.426391602
85302;BMP280;75707;46.948;7.410;2024-02-21T00:17:57;963.5109253;;;6.426391602
85302;BMP280;75707;46.948;7.410;2024-02-21T00:18:58;963.4790649;;;6.426391602
85302;BMP280;75707;46.948;7.410;2024-02-21T00:19:59;963.4933472;;;6.426391602
85302;BMP280;75707;46.948;7.410;2024-02-21T00:21:00;963.4812622;;;6.416320801
85302;BMP280;75707;46.948;7.410;2024-02-21T00:22:01;963.4464111;;;6.446533203
85302;BMP280;75707;46.948;7.410;2024-02-21T00:23:02;963.4421387;;;6.476745605
85302;BMP280;75707;46.948;7.410;2024-02-21T00:24:03;963.4415894;;;6.476745605
85302;BMP280;75707;46.948;7.410;2024-02-21T00:25:04;963.4689941;;;6.506958008
85302;BMP280;75707;46.948;7.410;2024-02-21T00:26:05;963.4671631;;;6.53717041
85302;BMP280;75707;46.948;7.410;2024-02-21T00:27:06;963.512207;;;6.567382813
85302;BMP280;75707;46.948;7.410;2024-02-21T00:28:07;963.4442749;;;6.577453613
85302;BMP280;75707;46.948;7.410;2024-02-21T00:29:08;963.4483032;;;6.637878418
85302;BMP280;75707;46.948;7.410;2024-02-21T00:30:10;963.4740601;;;6.627807617
85302;BMP280;75707;46.948;7.410;2024-02-21T00:31:11;963.4740601;;;6.577453613
85302;BMP280;75707;46.948;7.410;2024-02-21T00:32:43;963.4512329;;;6.547241211
85302;BMP280;75707;46.948;7.410;2024-02-21T00:33:44;963.4575195;;;6.506958008
85302;BMP280;75707;46.948;7.410;2024-02-21T00:34:45;963.4500122;;;6.456604004
85302;BMP280;75707;46.948;7.410;2024-02-21T00:35:46;963.4656372;;;6.426391602
85302;BMP280;75707;46.948;7.410;2024-02-21T00:36:47;963.4865723;;;6.446533203
85302;BMP280;75707;46.948;7.410;2024-02-21T00:37:48;963.4388428;;;6.396179199
85302;BMP280;75707;46.948;7.410;2024-02-21T00:38:49;963.4724121;;;6.456604004
85302;BMP280;75707;46.948;7.410;2024-02-21T00:39:50;963.4804077;;;6.496887207
85302;BMP280;75707;46.948;7.410;2024-02-21T00:40:51;963.484375;;;6.527099609
85302;BMP280;75707;46.948;7.410;2024-02-21T00:41:52;963.4984131;;;6.567382813
85302;BMP280;75707;46.948;7.410;2024-02-21T00:42:53;963.5239258;;;6.607666016
85302;BMP280;75707;46.948;7.410;2024-02-21T00:43:54;963.5214233;;;6.678161621
85302;BMP280;75707;46.948;7.410;2024-02-21T00:44:55;963.4921875;;;6.678161621
85302;BMP280;75707;46.948;7.410;2024-02-21T00:45:56;963.5004883;;;6.688232422
85302;BMP280;75707;46.948;7.410;2024-02-21T00:46:57;963.5340576;;;6.718444824
85302;BMP280;75707;46.948;7.410;2024-02-21T00:47:58;963.5393677;;;6.718444824
85302;BMP280;75707;46.948;7.410;2024-02-21T00:48:59;963.5007935;;;6.718444824
85302;BMP280;75707;46.948;7.410;2024-02-21T00:50:00;963.4714355;;;6.708374023
85302;BMP280;75707;46.948;7.410;2024-02-21T00:51:01;963.5150757;;;6.728515625
85302;BMP280;75707;46.948;7.410;2024-02-21T00:52:02;963.4378052;;;6.758728027
85302;BMP280;75707;46.948;7.410;2024-02-21T00:53:03;963.4632568;;;6.758728027
85302;BMP280;75707;46.948;7.410;2024-02-21T00:54:04;963.4331055;;;6.829223633
85302;BMP280;75707;46.948;7.410;2024-02-21T00:55:05;963.4447021;;;6.819152832
85302;BMP280;75707;46.948;7.410;2024-02-21T00:56:06;963.4740601;;;6.859436035
85302;BMP280;75707;46.948;7.410;2024-02-21T00:57:07;963.4622803;;;6.869506836
85302;BMP280;75707;46.948;7.410;2024-02-21T00:58:08;963.4481812;;;6.859436035
85302;BMP280;75707;46.948;7.410;2024-02-21T00:59:09;963.4188843;;;6.829223633
85302;BMP280;75707;46.948;7.410;2024-02-21T01:00:10;963.3571777;;;6.889648438
85302;BMP280;75707;46.948;7.410;2024-02-21T01:01:42;963.4011841;;;6.859436035
85302;BMP280;75707;46.948;7.410;2024-02-21T01:02:43;963.3424072;;;6.819152832
85302;BMP280;75707;46.948;7.410;2024-02-21T01:03:44;963.366394;;;6.778869629
85302;BMP280;75707;46.948;7.410;2024-02-21T01:04:45;963.3493042;;;6.728515625
85302;BMP280;75707;46.948;7.410;2024-02-21T01:05:46;963.3254395;;;6.688232422
85302;BMP280;75707;46.948;7.410;2024-02-21T01:06:47;963.2659912;;;6.637878418
85302;BMP280;75707;46.948;7.410;2024-02-21T01:07:48;963.2711792;;;6.607666016
85302;BMP280;75707;46.948;7.410;2024-02-21T01:08:49;963.281189;;;6.607666016
85302;BMP280;75707;46.948;7.410;2024-02-21T01:09:50;963.2492676;;;6.577453613
85302;BMP280;75707;46.948;7.410;2024-02-21T01:10:51;963.2443848;;;6.53717041
85302;BMP280;75707;46.948;7.410;2024-02-21T01:11:52;963.3168945;;;6.496887207
85302;BMP280;75707;46.948;7.410;2024-02-21T01:12:53;963.2979736;;;6.476745605
85302;BMP280;75707;46.948;7.410;2024-02-21T01:13:55;963.3582764;;;6.456604004
85302;BMP280;75707;46.948;7.410;2024-02-21T01:14:56;963.3251343;;;6.496887207
85302;BMP280;75707;46.948;7.410;2024-02-21T01:15:57;963.3563843;;;6.53717041
85302;BMP280;75707;46.948;7.410;2024-02-21T01:16:58;963.3546753;;;6.547241211
85302;BMP280;75707;46.948;7.410;2024-02-21T01:17:59;963.3449707;;;6.547241211
85302;BMP280;75707;46.948;7.410;2024-02-21T01:19:00;963.3369751;;;6.577453613
85302;BMP280;75707;46.948;7.410;2024-02-21T01:20:01;963.3326416;;;6.597595215
85302;BMP280;75707;46.948;7.410;2024-02-21T01:21:02;963.3244019;;;6.567382813
85302;BMP280;75707;46.948;7.410;2024-02-21T01:22:03;963.3389282;;;6.567382813
85302;BMP280;75707;46.948;7.410;2024-02-21T01:23:04;963.3552856;;;6.577453613
85302;BMP280;75707;46.948;7.410;2024-02-21T01:24:05;963.3407593;;;6.577453613
85302;BMP280;75707;46.948;7.410;2024-02-21T01:25:07;963.3517456;;;6.688232422
85302;BMP280;75707;46.948;7.410;2024-02-21T01:26:08;963.3629761;;;6.688232422
85302;BMP280;75707;46.948;7.410;2024-02-21T01:27:09;963.3673706;;;6.678161621
85302;BMP280;75707;46.948;7.410;2024-02-21T01:28:11;963.3458862;;;6.688232422
85302;BMP280;75707;46.948;7.410;2024-02-21T01:29:42;963.3085938;;;6.637878418
85302;BMP280;75707;46.948;7.410;2024-02-21T01:30:43;963.2793579;;;6.688232422
85302;BMP280;75707;46.948;7.410;2024-02-21T01:31:44;963.2185059;;;6.678161621
85302;BMP280;75707;46.948;7.410;2024-02-21T01:32:45;963.211853;;;6.607666016
85302;BMP280;75707;46.948;7.410;2024-02-21T01:33:46;963.2092285;;;6.53717041
85302;BMP280;75707;46.948;7.410;2024-02-21T01:34:47;963.1306152;;;6.496887207
85302;BMP280;75707;46.948;7.410;2024-02-21T01:35:48;963.116272;;;6.506958008
85302;BMP280;75707;46.948;7.410;2024-02-21T01:36:50;963.1154785;;;6.456604004
85302;BMP280;75707;46.948;7.410;2024-02-21T01:37:51;963.0986938;;;6.396179199
85302;BMP280;75707;46.948;7.410;2024-02-21T01:38:52;963.0526733;;;6.325683594
85302;BMP280;75707;46.948;7.410;2024-02-21T01:39:53;963.0307617;;;6.315612793
85302;BMP280;75707;46.948;7.410;2024-02-21T01:40:54;963.0584106;;;6.325683594
85302;BMP280;75707;46.948;7.410;2024-02-21T01:41:55;963.0512695;;;6.315612793
85302;BMP280;75707;46.948;7.410;2024-02-21T01:42:56;963.0722656;;;6.325683594
85302;BMP280;75707;46.948;7.410;2024-02-21T01:43:57;963.065918;;;6.315612793
85302;BMP280;75707;46.948;7.410;2024-02-21T01:44:58;963.0189209;;;6.27532959
85302;BMP280;75707;46.948;7.410;2024-02-21T01:45:59;963.0095215;;;6.355895996
85302;BMP280;75707;46.948;7.410;2024-02-21T01:47:00;962.9851685;;;6.416320801
85302;BMP280;75707;46.948;7.410;2024-02-21T01:48:01;962.9082642;;;6.426391602
85302;BMP280;75707;46.948;7.410;2024-02-21T01:49:01;962.9280396;;;6.426391602
85302;BMP280;75707;46.948;7.410;2024-02-21T01:50:03;962.904541;;;6.386108398
85302;BMP280;75707;46.948;7.410;2024-02-21T01:51:04;962.8781738;;;6.386108398
85302;BMP280;75707;46.948;7.410;2024-02-21T01:52:05;962.8615723;;;6.345825195
85302;BMP280;75707;46.948;7.410;2024-02-21T01:53:06;962.9031982;;;6.235046387
85302;BMP280;75707;46.948;7.410;2024-02-21T01:54:07;962.8464355;;;6.245117188
85302;BMP280;75707;46.948;7.410;2024-02-21T01:55:08;962.8343506;;;6.235046387
85302;BMP280;75707;46.948;7.410;2024-02-21T01:56:09;962.8779907;;;6.235046387
85302;BMP280;75707;46.948;7.410;2024-02-21T01:57:41;962.8782959;;;6.204833984
85302;BMP280;75707;46.948;7.410;2024-02-21T01:58:42;962.9197388;;;6.194763184
85302;BMP280;75707;46.948;7.410;2024-02-21T01:59:43;962.8798218;;;6.194763184
85302;BMP280;75707;46.948;7.410;2024-02-21T02:00:45;962.8300171;;;6.194763184
85302;BMP280;75707;46.948;7.410;2024-02-21T02:01:46;962.8228149;;;6.214904785
85302;BMP280;75707;46.948;7.410;2024-02-21T02:02:47;962.7888184;;;6.204833984
85302;BMP280;75707;46.948;7.410;2024-02-21T02:03:48;962.7966919;;;6.174621582
85302;BMP280;75707;46.948;7.410;2024-02-21T02:04:49;962.7525024;;;6.134338379
85302;BMP280;75707;46.948;7.410;2024-02-21T02:05:50;962.7254639;;;6.134338379
85302;BMP280;75707;46.948;7.410;2024-02-21T02:06:51;962.7148438;;;6.164550781
85302;BMP280;75707;46.948;7.410;2024-02-21T02:07:52;962.6751709;;;6.194763184
85302;BMP280;75707;46.948;7.410;2024-02-21T02:08:53;962.6599731;;;6.174621582
85302;BMP280;75707;46.948;7.410;2024-02-21T02:09:55;962.6220093;;;6.14440918
85302;BMP280;75707;46.948;7.410;2024-02-21T02:10:56;962.6040649;;;6.114196777
85302;BMP280;75707;46.948;7.410;2024-02-21T02:11:57;962.5978394;;;6.104125977
85302;BMP280;75707;46.948;7.410;2024-02-21T02:12:58;962.6102295;;;6.02355957
85302;BMP280;75707;46.948;7.410;2024-02-21T02:13:59;962.578125;;;5.993347168
85302;BMP280;75707;46.948;7.410;2024-02-21T02:15:01;962.5092163;;;5.983276367
85302;BMP280;75707;46.948;7.410;2024-02-21T02:16:02;962.5103149;;;5.993347168
85302;BMP280;75707;46.948;7.410;2024-02-21T02:17:03;962.4282837;;;6.033630371
85302;BMP280;75707;46.948;7.410;2024-02-21T02:18:04;962.4025269;;;6.053771973
85302;BMP280;75707;46.948;7.410;2024-02-21T02:19:05;962.3782959;;;6.134338379
85302;BMP280;75707;46.948;7.410;2024-02-21T02:20:07;962.3484497;;;6.14440918
85302;BMP280;75707;46.948;7.410;2024-02-21T02:21:10;962.3234253;;;6.214904785
85302;BMP280;75707;46.948;7.410;2024-02-21T02:22:09;962.2803345;;;6.315612793
85302;BMP280;75707;46.948;7.410;2024-02-21T02:23:41;962.3051758;;;6.416320801
85302;BMP280;75707;46.948;7.410;2024-02-21T02:24:42;962.2717896;;;6.396179199
85302;BMP280;75707;46.948;7.410;2024-02-21T02:25:43;962.2712402;;;6.386108398
85302;BMP280;75707;46.948;7.410;2024-02-21T02:26:44;962.2940063;;;6.345825195
85302;BMP280;75707;46.948;7.410;2024-02-21T02:27:45;962.2226563;;;6.325683594
85302;BMP280;75707;46.948;7.410;2024-02-21T02:28:46;962.282959;;;6.345825195
85302;BMP280;75707;46.948;7.410;2024-02-21T02:29:48;962.3031006;;;6.386108398
85302;BMP280;75707;46.948;7.410;2024-02-21T02:30:49;962.3035889;;;6.396179199
85302;BMP280;75707;46.948;7.410;2024-02-21T02:31:50;962.3584595;;;6.386108398
85302;BMP280;75707;46.948;7.410;2024-02-21T02:32:51;962.3284302;;;6.376037598
85302;BMP280;75707;46.948;7.410;2024-02-21T02:33:52;962.3457642;;;6.386108398
85302;BMP280;75707;46.948;7.410;2024-02-21T02:34:54;962.3143921;;;6.386108398
85302;BMP280;75707;46.948;7.410;2024-02-21T02:35:55;962.3075562;;;6.345825195
85302;BMP280;75707;46.948;7.410;2024-02-21T02:36:56;962.2866211;;;6.315612793
85302;BMP280;75707;46.948;7.410;2024-02-21T02:37:58;962.2802124;;;6.204833984
85302;BMP280;75707;46.948;7.410;2024-02-21T02:38:59;962.3092041;;;6.204833984
85302;BMP280;75707;46.948;7.410;2024-02-21T02:40:00;962.324707;;;6.194763184
85302;BMP280;75707;46.948;7.410;2024-02-21T02:41:01;962.335144;;;6.164550781
85302;BMP280;75707;46.948;7.410;2024-02-21T02:42:02;962.2946777;;;6.14440918
85302;BMP280;75707;46.948;7.410;2024-02-21T02:43:03;962.2957764;;;6.164550781
85302;BMP280;75707;46.948;7.410;2024-02-21T02:44:04;962.2775269;;;6.174621582
85302;BMP280;75707;46.948;7.410;2024-02-21T02:45:06;962.3199463;;;6.194763184
85302;BMP280;75707;46.948;7.410;2024-02-21T02:46:07;962.2804565;;;6.214904785
85302;BMP280;75707;46.948;7.410;2024-02-21T02:47:08;962.3501587;;;6.245117188
85302;BMP280;75707;46.948;7.410;2024-02-21T02:48:09;962.2199707;;;6.27532959
85302;BMP280;75707;46.948;7.410;2024-02-21T02:49:41;962.1282959;;;6.295471191
85302;BMP280;75707;46.948;7.410;2024-02-21T02:50:42;962.1065063;;;6.295471191
85302;BMP280;75707;46.948;7.410;2024-02-21T02:51:43;962.0565796;;;6.325683594
85302;BMP280;75707;46.948;7.410;2024-02-21T02:52:44;962.0139771;;;6.315612793
85302;BMP280;75707;46.948;7.410;2024-02-21T02:53:45;962.0351563;;;6.345825195
85302;BMP280;75707;46.948;7.410;2024-02-21T02:54:46;962.0002441;;;6.315612793
85302;BMP280;75707;46.948;7.410;2024-02-21T02:55:47;962.0139771;;;6.27532959
85302;BMP280;75707;46.948;7.410;2024-02-21T02:56:49;962.0139771;;;6.245117188
85302;BMP280;75707;46.948;7.410;2024-02-21T02:57:50;961.9719238;;;6.245117188
85302;BMP280;75707;46.948;7.410;2024-02-21T02:58:51;961.9226685;;;6.245117188
85302;BMP280;75707;46.948;7.410;2024-02-21T02:59:52;961.9328003;;;6.235046387
85302;BMP280;75707;46.948;7.410;2024-02-21T03:00:53;961.9472656;;;6.265258789
85302;BMP280;75707;46.948;7.410;2024-02-21T03:01:54;961.9260864;;;6.27532959
85302;BMP280;75707;46.948;7.410;2024-02-21T03:02:55;961.9436035;;;6.27532959
85302;BMP280;75707;46.948;7.410;2024-02-21T03:03:56;961.9193115;;;6.27532959
85302;BMP280;75707;46.948;7.410;2024-02-21T03:04:57;961.8911133;;;6.245117188
85302;BMP280;75707;46.948;7.410;2024-02-21T03:05:58;961.8843994;;;6.214904785
85302;BMP280;75707;46.948;7.410;2024-02-21T03:06:59;961.8359375;;;6.14440918
85302;BMP280;75707;46.948;7.410;2024-02-21T03:08:00;961.8362427;;;6.114196777
85302;BMP280;75707;46.948;7.410;2024-02-21T03:09:01;961.7781372;;;6.14440918
85302;BMP280;75707;46.948;7.410;2024-02-21T03:10:02;961.7332153;;;6.194763184
85302;BMP280;75707;46.948;7.410;2024-02-21T03:11:03;961.774231;;;6.174621582
85302;BMP280;75707;46.948;7.410;2024-02-21T03:12:05;961.7000732;;;6.164550781
85302;BMP280;75707;46.948;7.410;2024-02-21T03:13:05;961.6942139;;;6.134338379
85302;BMP280;75707;46.948;7.410;2024-02-21T03:14:06;961.6727905;;;6.114196777
85302;BMP280;75707;46.948;7.410;2024-02-21T03:15:07;961.6771851;;;6.114196777
85302;BMP280;75707;46.948;7.410;2024-02-21T03:16:08;961.663269;;;5.993347168
85302;BMP280;75707;46.948;7.410;2024-02-21T03:17:40;961.6518555;;;5.902709961
85302;BMP280;75707;46.948;7.410;2024-02-21T03:18:41;961.6696777;;;5.852355957
85302;BMP280;75707;46.948;7.410;2024-02-21T03:19:43;961.6269531;;;5.852355957
85302;BMP280;75707;46.948;7.410;2024-02-21T03:20:43;961.5783081;;;5.842285156
85302;BMP280;75707;46.948;7.410;2024-02-21T03:21:45;961.5644531;;;5.802001953
85302;BMP280;75707;46.948;7.410;2024-02-21T03:22:46;961.5032959;;;5.771789551
85302;BMP280;75707;46.948;7.410;2024-02-21T03:23:47;961.4827881;;;5.741577148
85302;BMP280;75707;46.948;7.410;2024-02-21T03:24:49;961.4707642;;;5.731506348
85302;BMP280;75707;46.948;7.410;2024-02-21T03:25:50;961.5093994;;;5.781860352
85302;BMP280;75707;46.948;7.410;2024-02-21T03:26:51;961.4922485;;;5.842285156
85302;BMP280;75707;46.948;7.410;2024-02-21T03:27:52;961.4597168;;;5.852355957
85302;BMP280;75707;46.948;7.410;2024-02-21T03:28:53;961.4326782;;;5.882568359
85302;BMP280;75707;46.948;7.410;2024-02-21T03:29:55;961.3981323;;;5.872497559
85302;BMP280;75707;46.948;7.410;2024-02-21T03:30:56;961.3883057;;;5.842285156
85302;BMP280;75707;46.948;7.410;2024-02-21T03:31:57;961.3687744;;;5.842285156
85302;BMP280;75707;46.948;7.410;2024-02-21T03:32:58;961.355835;;;5.852355957
85302;BMP280;75707;46.948;7.410;2024-02-21T03:34:00;961.3708496;;;5.953063965
85302;BMP280;75707;46.948;7.410;2024-02-21T03:35:01;961.4190674;;;5.983276367
85302;BMP280;75707;46.948;7.410;2024-02-21T03:36:02;961.4589233;;;5.993347168
85302;BMP280;75707;46.948;7.410;2024-02-21T03:37:03;961.4487305;;;5.993347168
85302;BMP280;75707;46.948;7.410;2024-02-21T03:38:05;961.4648438;;;6.02355957
85302;BMP280;75707;46.948;7.410;2024-02-21T03:39:06;961.4501343;;;6.02355957
85302;BMP280;75707;46.948;7.410;2024-02-21T03:40:07;961.4550171;;;6.063842773
85302;BMP280;75707;46.948;7.410;2024-02-21T03:41:08;961.4177246;;;6.053771973
85302;BMP280;75707;46.948;7.410;2024-02-21T03:42:40;961.409668;;;6.033630371
85302;BMP280;75707;46.948;7.410;2024-02-21T03:43:41;961.4216919;;;6.01348877
85302;BMP280;75707;46.948;7.410;2024-02-21T03:44:42;961.3972168;;;5.953063965
85302;BMP280;75707;46.948;7.410;2024-02-21T03:45:43;961.4099731;;;5.902709961
85302;BMP280;75707;46.948;7.410;2024-02-21T03:46:45;961.3701782;;;5.832214355
85302;BMP280;75707;46.948;7.410;2024-02-21T03:47:46;961.4004517;;;5.802001953
85302;BMP280;75707;46.948;7.410;2024-02-21T03:48:47;961.373291;;;5.741577148
85302;BMP280;75707;46.948;7.410;2024-02-21T03:49:48;961.3605347;;;5.691223145
85302;BMP280;75707;46.948;7.410;2024-02-21T03:50:50;961.3643799;;;5.63079834
85302;BMP280;75707;46.948;7.410;2024-02-21T03:51:50;961.3370361;;;5.620727539
85302;BMP280;75707;46.948;7.410;2024-02-21T03:52:51;961.3668823;;;5.620727539
85302;BMP280;75707;46.948;7.410;2024-02-21T03:53:53;961.3087769;;;5.650939941
85302;BMP280;75707;46.948;7.410;2024-02-21T03:54:54;961.3032837;;;5.691223145
85302;BMP280;75707;46.948;7.410;2024-02-21T03:55:55;961.288147;;;5.741577148
85302;BMP280;75707;46.948;7.410;2024-02-21T03:56:56;961.2802124;;;5.731506348
85302;BMP280;75707;46.948;7.410;2024-02-21T03:57:57;961.276123;;;5.63079834
85302;BMP280;75707;46.948;7.410;2024-02-21T03:58:58;961.2391968;;;5.650939941
85302;BMP280;75707;46.948;7.410;2024-02-21T03:59:59;961.2282715;;;5.661010742
85302;BMP280;75707;46.948;7.410;2024-02-21T04:01:00;961.2355347;;;5.661010742
85302;BMP280;75707;46.948;7.410;2024-02-21T04:02:01;961.2160645;;;5.701293945
85302;BMP280;75707;46.948;7.410;2024-02-21T04:03:02;961.2787476;;;5.731506348
85302;BMP280;75707;46.948;7.410;2024-02-21T04:04:03;961.2790527;;;5.741577148
85302;BMP280;75707;46.948;7.410;2024-02-21T04:05:04;961.3442993;;;5.751647949
85302;BMP280;75707;46.948;7.410;2024-02-21T04:06:05;961.3203735;;;5.771789551
85302;BMP280;75707;46.948;7.410;2024-02-21T04:07:06;961.3215332;;;5.751647949
85302;BMP280;75707;46.948;7.410;2024-02-21T04:08:08;961.2559204;;;5.671081543
85302;BMP280;75707;46.948;7.410;2024-02-21T04:09:39;961.2098389;;;5.650939941
85302;BMP280;75707;46.948;7.410;2024-02-21T04:10:41;961.1925049;;;5.701293945
85302;BMP280;75707;46.948;7.410;2024-02-21T04:11:41;961.1824341;;;5.671081543
85302;BMP280;75707;46.948;7.410;2024-02-21T04:12:42;961.1584473;;;5.600585938
85302;BMP280;75707;46.948;7.410;2024-02-21T04:13:42;961.1773682;;;5.550231934
85302;BMP280;75707;46.948;7.410;2024-02-21T04:14:43;961.1884155;;;5.50994873
85302;BMP280;75707;46.948;7.410;2024-02-21T04:15:44;961.175293;;;5.50994873
85302;BMP280;75707;46.948;7.410;2024-02-21T04:16:45;961.1900024;;;5.520019531
85302;BMP280;75707;46.948;7.410;2024-02-21T04:17:46;961.2258301;;;5.489807129
85302;BMP280;75707;46.948;7.410;2024-02-21T04:18:47;961.1741943;;;5.489807129
85302;BMP280;75707;46.948;7.410;2024-02-21T04:19:48;961.1716919;;;5.520019531
85302;BMP280;75707;46.948;7.410;2024-02-21T04:20:50;961.1652832;;;5.600585938
85302;BMP280;75707;46.948;7.410;2024-02-21T04:21:50;961.1647949;;;5.650939941
85302;BMP280;75707;46.948;7.410;2024-02-21T04:22:50;961.1987305;;;5.671081543
85302;BMP280;75707;46.948;7.410;2024-02-21T04:23:51;961.1860962;;;5.691223145
85302;BMP280;75707;46.948;7.410;2024-02-21T04:24:51;961.1207275;;;5.691223145
85302;BMP280;75707;46.948;7.410;2024-02-21T04:25:52;961.0982056;;;5.751647949
85302;BMP280;75707;46.948;7.410;2024-02-21T04:26:53;961.0769653;;;5.781860352
85302;BMP280;75707;46.948;7.410;2024-02-21T04:27:53;961.0565796;;;5.771789551
85302;BMP280;75707;46.948;7.410;2024-02-21T04:28:54;961.0314331;;;5.741577148
85302;BMP280;75707;46.948;7.410;2024-02-21T04:29:55;961.0424805;;;5.701293945
85302;BMP280;75707;46.948;7.410;2024-02-21T04:30:55;960.991333;;;5.671081543
85302;BMP280;75707;46.948;7.410;2024-02-21T04:31:56;960.989502;;;5.701293945
85302;BMP280;75707;46.948;7.410;2024-02-21T04:32:57;960.9793701;;;5.771789551
85302;BMP280;75707;46.948;7.410;2024-02-21T04:33:57;960.9835815;;;5.771789551
85302;BMP280;75707;46.948;7.410;2024-02-21T04:34:58;961.0093994;;;5.781860352
85302;BMP280;75707;46.948;7.410;2024-02-21T04:35:59;960.9429932;;;5.751647949
85302;BMP280;75707;46.948;7.410;2024-02-21T04:36:59;960.9572754;;;5.661010742
85302;BMP280;75707;46.948;7.410;2024-02-21T04:38:00;960.9327393;;;5.600585938
85302;BMP280;75707;46.948;7.410;2024-02-21T04:39:00;960.9620361;;;5.560302734
85302;BMP280;75707;46.948;7.410;2024-02-21T04:40:01;960.9990845;;;5.50994873
85302;BMP280;75707;46.948;7.410;2024-02-21T04:41:02;960.9662476;;;5.50994873
85302;BMP280;75707;46.948;7.410;2024-02-21T04:42:02;960.9182739;;;5.550231934
85302;BMP280;75707;46.948;7.410;2024-02-21T04:43:03;960.8721924;;;5.550231934
85302;BMP280;75707;46.948;7.410;2024-02-21T04:44:04;960.8909302;;;5.580444336
85302;BMP280;75707;46.948;7.410;2024-02-21T04:45:05;960.8659668;;;5.600585938
85302;BMP280;75707;46.948;7.410;2024-02-21T04:46:05;960.8914185;;;5.63079834
85302;BMP280;75707;46.948;7.410;2024-02-21T04:47:06;960.8756104;;;5.590515137
85302;BMP280;75707;46.948;7.410;2024-02-21T04:48:06;960.9043579;;;5.50994873
85302;BMP280;75707;46.948;7.410;2024-02-21T04:49:38;960.9266357;;;5.50994873
85302;BMP280;75707;46.948;7.410;2024-02-21T04:50:39;960.892334;;;5.520019531
85302;BMP280;75707;46.948;7.410;2024-02-21T04:51:40;960.8724976;;;5.520019531
85302;BMP280;75707;46.948;7.410;2024-02-21T04:52:40;960.8655396;;;5.469665527
85302;BMP280;75707;46.948;7.410;2024-02-21T04:53:40;960.8153076;;;5.469665527
85302;BMP280;75707;46.948;7.410;2024-02-21T04:54:41;960.7987671;;;5.479736328
85302;BMP280;75707;46.948;7.410;2024-02-21T04:55:42;960.7949829;;;5.479736328
85302;BMP280;75707;46.948;7.410;2024-02-21T04:56:42;960.7824097;;;5.489807129
85302;BMP280;75707;46.948;7.410;2024-02-21T04:57:43;960.8227539;;;5.479736328
85302;BMP280;75707;46.948;7.410;2024-02-21T04:58:44;960.8262329;;;5.449523926
85302;BMP280;75707;46.948;7.410;2024-02-21T04:59:44;960.7751465;;;5.469665527
85302;BMP280;75707;46.948;7.410;2024-02-21T05:00:45;960.7313232;;;5.449523926
85302;BMP280;75707;46.948;7.410;2024-02-21T05:01:46;960.7203979;;;5.409240723
85302;BMP280;75707;46.948;7.410;2024-02-21T05:02:46;960.6826782;;;5.36895752
85302;BMP280;75707;46.948;7.410;2024-02-21T05:03:47;960.6546631;;;5.288391113
85302;BMP280;75707;46.948;7.410;2024-02-21T05:04:48;960.6194458;;;5.258178711
85302;BMP280;75707;46.948;7.410;2024-02-21T05:05:48;960.6040649;;;5.268249512
85302;BMP280;75707;46.948;7.410;2024-02-21T05:06:49;960.5840454;;;5.318603516
85302;BMP280;75707;46.948;7.410;2024-02-21T05:07:50;960.5661011;;;5.348815918
85302;BMP280;75707;46.948;7.410;2024-02-21T05:08:51;960.5460815;;;5.37902832
85302;BMP280;75707;46.948;7.410;2024-02-21T05:09:52;960.5175171;;;5.37902832
85302;BMP280;75707;46.948;7.410;2024-02-21T05:10:53;960.4473267;;;5.399169922
85302;BMP280;75707;46.948;7.410;2024-02-21T05:11:54;960.4429932;;;5.37902832
85302;BMP280;75707;46.948;7.410;2024-02-21T05:12:55;960.4160767;;;5.36895752
85302;BMP280;75707;46.948;7.410;2024-02-21T05:13:56;960.4057617;;;5.348815918
85302;BMP280;75707;46.948;7.410;2024-02-21T05:14:57;960.4130249;;;5.409240723
85302;BMP280;75707;46.948;7.410;2024-02-21T05:15:59;960.3609619;;;5.409240723
85302;BMP280;75707;46.948;7.410;2024-02-21T05:17:00;960.3803101;;;5.37902832